4th Annual Monroe County Lake Erie Muskrat Run

back to results

Feb. 14, 2009

4th Annual Monroe County Lake Erie Muskrat Run
Sterling State Park in Monroe County
Provided by Everal Race Management
Overall Female Overall Winners
Place Name City Bib No Age Overall Time Pace
1 Dominique Miller Tecumseh MI 141 19 16 23:50 7:41/M
Overall Male Overall Winners
Place Name City Bib No Age Overall Time Pace
1 James Watson Monroe MI 22 15 1 18:40 6:01/M
Female 18 & under
Place Name City Bib No Age Overall Time Pace
1 Candace Savonen 100 17 22 25:28 8:13/M
2 Rachel Baron Newport MI 27 18 33 26:53 8:40/M
3 Samantha Steinman Monroe MI 94 15 35 26:59 8:42/M
4 Emily Wonser Erie MI 14 17 36 27:11 8:46/M
5 Morgan White Monroe MI 89 16 47 28:55 9:20/M
Male 18 & under
Place Name City Bib No Age Overall Time Pace
1 John Webb Newport MI 7 15 3 19:22 6:15/M
2 Brian Applin 113 16 5 20:56 6:45/M
3 Andrew Bowman 103 14 6 21:05 6:48/M
4 Jacob Bowman 123 14 7 21:07 6:49/M
5 Alex Johnson 119 18 9 21:59 7:05/M
6 Mike Berivs Newport MI 9 17 10 22:17 7:11/M
7 Nathan Schultz Monroe MI 99 18 13 22:37 7:18/M
8 Cody Weiss 6 13 87 42:35 13:44/M
9 Kellen Sorenson S. Rockwood MI 5 14 88 43:34 14:03/M
Female 19 to 29
Place Name City Bib No Age Overall Time Pace
1 Megann Root Maybee MI 35 25 25 25:46 8:19/M
2 Kristy Burgess Dearborn MI 32 29 30 26:30 8:33/M
3 Jill Johnson Detroit MI 12 29 44 28:14 9:06/M
4 Rachel Bootien Monroe MI 30 25 55 30:19 9:47/M
5 Marcia Halason Monroe MI 15 29 74 34:35 11:09/M
6 Vanessa Dekovich 126 20 86 41:46 13:28/M
Male 19 to 29
Place Name City Bib No Age Overall Time Pace
1 Nick Stauder 95 20 17 24:05 7:46/M
2 Nathan McCarty Monroe MI 8 27 18 24:17 7:50/M
3 Daniel Brace Monroe MI 33 25 40 27:40 8:55/M
4 Jack Dekovich 116 23 89 43:49 14:08/M
Female 30 to 39
Place Name City Bib No Age Overall Time Pace
1 Renee Merkel Monroe MI 140 35 21 25:06 8:06/M
2 Christine Brubaker 105 33 27 25:53 8:21/M
3 Rachel Palmer Lasallle MI 26 30 39 27:17 8:48/M
4 Alicia Simpson 97 30 41 27:42 8:56/M
5 Marie Deline Newport MI 17 31 50 29:45 9:36/M
6 Laura Tomlinson Baker Newport MI 16 35 70 33:30 10:48/M
7 Anne Donnelly 107 36 71 33:31 10:49/M
8 Monica Wagner Monroe MI 25 31 78 36:06 11:39/M
9 Michelle Brahaney 104 38 81 38:36 12:27/M
Male 30 to 39
Place Name City Bib No Age Overall Time Pace
1 Matt West Ypsilanti MI 10 33 2 18:43 6:02/M
2 Mike Mulherin 143 35 12 22:31 7:16/M
3 Robert Krueger 136 30 14 23:13 7:29/M
4 Deric Tedora Monroe MI 91 33 20 24:49 8:00/M
5 Reuben Younglove Carleton MI 19 38 26 25:50 8:20/M
6 Jeff Conway Dearborn MI 34 33 29 26:19 8:29/M
7 Jim Rudy Monroe MI 31 34 32 26:49 8:39/M
8 Aaron Fiala 117 36 34 26:56 8:41/M
9 Kevin Rantanen 148 32 42 27:45 8:57/M
10 Sharon Pilaske 146 31 43 27:51 8:59/M
11 Mark Sievers Detroit MICHI 23 35 52 30:03 9:42/M
12 Cope Cosumano Monroe MI 24 34 59 31:31 10:10/M
13 Eric Cowing 125 35 75 34:45 11:13/M
14 Kyle Gut 118 31 77 35:57 11:36/M
15 Lawrence Gardner Toledo OH 127 39 79 38:23 12:23/M
Female 40 to 49
Place Name City Bib No Age Overall Time Pace
1 Beth Gilday Woodhaven MI 108 47 19 24:44 7:59/M
2 Celina Bowman 36 44 31 26:33 8:34/M
3 Nancy Mills Newport MI 142 47 38 27:14 8:47/M
4 Michele Horvath New Boston MI 28 46 46 28:30 9:12/M
5 Ann Savonen 150 48 48 28:56 9:20/M
6 Bon Holben Redford MI 20 41 51 29:48 9:37/M
7 Cheryl McElvany Monroe MI 139 49 58 31:19 10:06/M
8 Connie Payton Swanton OH 145 40 60 31:34 10:11/M
9 June White Monroe MI 90 46 62 31:58 10:19/M
10 Heather Bellino Austin TX 38 40 63 32:05 10:21/M
11 Karen Sabuda Riverview MI 3 47 64 32:10 10:23/M
12 Beth Wonser Erie MI 13 44 73 34:04 10:59/M
13 Marie Brown Taylor MI 124 49 76 35:35 11:29/M
14 Sue Clark 115 40 80 38:36 12:27/M
15 Donna Korytkowski New Boston MI 134 46 82 38:51 12:32/M
16 Chris Russeau 149 49 83 39:05 12:36/M
Male 40 to 49
Place Name City Bib No Age Overall Time Pace
1 Todd Kelly Troy MI 11 47 4 20:29 6:36/M
2 Ron Anderson 101 41 8 21:16 6:52/M
3 Thomas Kleman Temperance MI 130 48 11 22:24 7:14/M
4 David Brown Taylor MI 114 49 15 23:50 7:41/M
5 Danny Swindle 4 49 23 25:36 8:15/M
6 Scott Johnson 110 44 28 26:07 8:25/M
7 Todd Bellino Austin TX 37 41 45 28:25 9:10/M
8 Jeff Walters Monroe MI 1 48 53 30:05 9:42/M
9 Matt Masserant Newport MI 138 42 56 30:25 9:49/M
10 Jeff Barron 102 46 57 30:26 9:49/M
11 Gary Pareyt 144 45 61 31:40 10:13/M
12 Brad Baumann Monroe MI 122 45 65 32:21 10:26/M
13 Mark Korytkowski New Boston MI 135 46 72 33:49 10:55/M
14 Don Steve Lasalle MI 92 45 85 40:49 13:10/M
Female 50 to 59
Place Name City Bib No Age Overall Time Pace
1 Anne Scott Monroe MI 98 55 68 32:57 10:38/M
2 Laura Bilotta Tecumseh MI 18 51 69 33:16 10:44/M
3 Sally Poore 147 53 90 56:06 18:06/M
4 Cathy Johnson Union Lake MI 129 50 91 56:07 18:06/M
Male 50 to 59
Place Name City Bib No Age Overall Time Pace
1 Jim Jackel Monroe MI 109 55 24 25:42 8:17/M
2 Bob Dushane 121 50 37 27:12 8:46/M
3 Makoto Fiukumoto Woodhaven MI 29 54 49 29:02 9:22/M
4 Martin J. Nadeau Jr. Monroe MI 21 53 54 30:10 9:44/M
5 Aldo Dekovich 106 59 66 32:38 10:32/M
6 Al Michaud 86 59 67 32:46 10:34/M
Male 70 & up
Place Name City Bib No Age Overall Time Pace
1 Alex Steve 93 83 84 40:48 13:10/M